This is the latest recevied weather packets stored in our database for station/object 9W2YIE-13. If no packets are shown the sender has not sent any weather packets the latest 10 day(s).
| Time | Temp. | Humidity | Pressure | Rain* | Wind** | Luminosity | Snow |
|---|---|---|---|---|---|---|---|
| 1787945510 | 41.11° C | 38% | 1006 hPa | - | - | 0 W/m² | - |
| 1787944585 | 41.11° C | 38% | 1006 hPa | - | - | 0 W/m² | - |
| 1787943659 | 40.56° C | 39% | 1006 hPa | - | - | 0 W/m² | - |
| 1787942732 | 41.11° C | 38% | 1006 hPa | - | - | 0 W/m² | - |
| 1787941797 | 41.11° C | 40% | 1007 hPa | - | - | 0 W/m² | - |
| 1787940860 | 43.33° C | 36% | 1007 hPa | - | - | 0 W/m² | - |
| 1787939930 | 43.33° C | 36% | 1007 hPa | - | - | 0 W/m² | - |
| 1787939005 | 43.89° C | 35% | 1007 hPa | - | - | 0 W/m² | - |
| 1787938079 | 44.44° C | 34% | 1007 hPa | - | - | 0 W/m² | - |
| 1787937153 | 43.89° C | 35% | 1007 hPa | - | - | 0 W/m² | - |
| 1787936226 | 42.78° C | 36% | 1008 hPa | - | - | 0 W/m² | - |
| 1787935301 | 44.44° C | 35% | 1008 hPa | - | - | 0 W/m² | - |
| 1787934372 | 45° C | 34% | 1008 hPa | - | - | 0 W/m² | - |
| 1787933439 | 45° C | 34% | 1008 hPa | - | - | 0 W/m² | - |
| 1787932509 | 45° C | 34% | 1008 hPa | - | - | 0 W/m² | - |
| 1787931564 | 45° C | 34% | 1008 hPa | - | - | 0 W/m² | - |
| 1787930625 | 45° C | 34% | 1008 hPa | - | - | 0 W/m² | - |
| 1787929653 | 45° C | 33% | 1008 hPa | - | - | 0 W/m² | - |
| 1787928711 | 44.44° C | 35% | 1008 hPa | - | - | 0 W/m² | - |
| 1787927780 | 45° C | 34% | 1008 hPa | - | - | 0 W/m² | - |
| 1787926841 | 46.11° C | 33% | 1007 hPa | - | - | 0 W/m² | - |
| 1787925872 | 45.56° C | 33% | 1007 hPa | - | - | 0 W/m² | - |
| 1787924944 | 45.56° C | 33% | 1007 hPa | - | - | 0 W/m² | - |
| 1787924002 | 46.67° C | 31% | 1007 hPa | - | - | 0 W/m² | - |
| 1787923047 | 47.22° C | 30% | 1007 hPa | - | - | 0 W/m² | - |
* Rain since midnight (hover to see other rain measurements)
** Current wind speed in m/s (hover to see current wind gust speed)